Aérodrome :







RETROUVEZ-NOUS SUR...

 
LOGIN :

S'inscrire | Disclaimer

   EN    FR    IT 

 









Légende :    VFR   VFR Marginal   IFR   IFR Intensif   IFR Très Intensif
Visi : 
Plafond : 
>= 8 km
>= 3000ft
5 à 8 km
1000 à 3000 ft
1500m à 5 km
500 à 1000 ft
800 à 1500m
200 à 500 ft
< 800m
< 200 ft
Symboles :   Orages  Brouillard  Fortes neiges  Fortes précipitations  Vent > 20 kt






- Altitude de l'aérodrome : 160 ft
- Code IATA : YYG


CYYG - Charlottetown

DERNIER METAR :
  • 111238Z 16008KT 12SM SCT009 BKN250 21/19 A3003 RMK CF4CI1 SLP172 DENSITY ALT 800FT

METARs EXPIRÉS :
  • 111211Z 16008KT 12SM BKN008 BKN250 20/19 A3004 RMK SF7CI1 CI TR SLP173 DENSITY ALT 800FT
  • 111100Z 19010KT 10SM BKN004 OVC250 19/18 A3004 RMK ST7CI1 SLP173 DENSITY ALT 600FT
  • 111000Z 17008KT 10SM BKN004 18/18 A3005 RMK SF7 VIS LWR W SLP176 DENSITY ALT 400FT

TAF TAF CYYG
Valide du 11 à 11h jusqu'au 11 à 23h UTC


111038Z 1111/1123 18012KT P6SM OVC004
TEMPO 1111/1113 SCT004
FM111300 19010KT P6SM SKC
PROB30 1113/1115 BKN004
FM112100 17010KT P6SM BKN025 RMK NXT FCST BY 111400Z
FIR CZQM / Amérique du Nord



MET'MAP, la Météo Aéronautique d'un coup d'oeil ! - Copyright ORBIFLY Décembre 2007 - Disclaimer

ORBIFLY MET'MAP TEAM :

Programmation & Développement : Alexandra Zaïnal
Sur une idée originale de : Baudouin d'Aumeries
Assistance à la programmation : Marc-Olivier Méhu
Soutien technique & logistique : Manuel Goepfert

Contact : metmap@orbifly.com




SOURCES & CREDITS :

   NOAA